Kalmthout, Belgium
Current Conditions -  °F | °C
As of 6:09 AM on Saturday 29 Nov 2014 (Local Time) from EHWO Reporting Station
Haze Haze  
Wind Chill: 34°   Ceiling: Unl
Heat Index: 37°   Visibility: 3mi
Dew Point: 36°   Wind: 5mph
Humidity: 93%   Direction: 80°E
Pressure: 29.88"   Gusts: NA
Location:  51.38°N, 4.48°E
Report Text: EHWO 290509Z AUTO 08004KT 5000 BR FEW007 03/02 Q1012 WHT
Loading
Personal Weather Stations






























Interactive Weather Map New forecast layout! Learn more

10-Day Weather Forecast

Advertisements
Track Severe Weather on mobile